createdAt,value
2023-12-21T00:00:10.965Z,982.80
2023-12-21T00:01:11.025Z,982.87
2023-12-21T00:02:10.963Z,982.80
2023-12-21T00:03:10.946Z,982.74
2023-12-21T00:04:11.025Z,982.72
2023-12-21T00:05:11.044Z,982.71
2023-12-21T00:06:13.270Z,982.70
2023-12-21T00:07:10.953Z,982.74
2023-12-21T00:08:10.951Z,982.78
2023-12-21T00:09:10.853Z,982.65
2023-12-21T00:10:10.920Z,982.59
2023-12-21T00:11:10.847Z,982.63
2023-12-21T00:12:10.868Z,982.54
2023-12-21T00:13:10.861Z,982.53
2023-12-21T00:14:10.808Z,982.47
2023-12-21T00:15:10.794Z,982.47
2023-12-21T00:16:10.828Z,982.44
2023-12-21T00:17:10.797Z,982.46
2023-12-21T00:18:10.861Z,982.47
2023-12-21T00:19:10.872Z,982.38
2023-12-21T00:20:10.796Z,982.31
2023-12-21T00:21:10.732Z,982.34
2023-12-21T00:22:10.778Z,982.29
2023-12-21T00:23:10.708Z,982.30
2023-12-21T00:24:10.707Z,982.10
2023-12-21T00:25:10.710Z,982.16
2023-12-21T00:26:10.712Z,982.17
2023-12-21T00:27:10.691Z,982.11
2023-12-21T00:28:10.715Z,982.11
2023-12-21T00:29:10.654Z,982.07
2023-12-21T00:30:10.650Z,982.06
2023-12-21T00:31:10.744Z,982.07
2023-12-21T00:32:13.576Z,982.03
2023-12-21T00:33:10.695Z,982.10
2023-12-21T00:34:10.698Z,982.02
2023-12-21T00:35:10.595Z,982.14
2023-12-21T00:36:10.593Z,982.15
2023-12-21T00:37:10.629Z,982.05
2023-12-21T00:38:10.567Z,982.04
2023-12-21T00:39:10.548Z,982.03
2023-12-21T00:40:10.579Z,982.08
2023-12-21T00:41:10.549Z,982.11
2023-12-21T00:42:10.529Z,982.13
2023-12-21T00:43:10.512Z,982.13
2023-12-21T00:44:10.525Z,982.11
2023-12-21T00:45:10.486Z,982.19
2023-12-21T00:46:10.516Z,982.12
2023-12-21T00:47:10.462Z,982.13
2023-12-21T00:48:10.635Z,982.00
2023-12-21T00:49:10.511Z,982.02
2023-12-21T00:50:10.523Z,982.03
2023-12-21T00:51:10.457Z,981.99
2023-12-21T00:52:10.496Z,982.04
2023-12-21T00:53:10.402Z,981.94
2023-12-21T00:54:10.408Z,981.95
2023-12-21T00:55:10.460Z,981.92
2023-12-21T00:56:10.415Z,981.91
2023-12-21T00:57:11.348Z,981.89
2023-12-21T00:58:10.374Z,981.91
2023-12-21T00:59:10.336Z,981.86
2023-12-21T01:00:10.371Z,981.83
2023-12-21T01:01:13.288Z,981.76
2023-12-21T01:02:10.360Z,981.81
2023-12-21T01:03:10.375Z,981.80
2023-12-21T01:04:10.317Z,981.90
2023-12-21T01:05:10.309Z,981.84
2023-12-21T01:06:10.315Z,981.82
2023-12-21T01:07:10.273Z,981.75
2023-12-21T01:08:10.250Z,981.67
2023-12-21T01:09:10.256Z,981.71
2023-12-21T01:10:10.485Z,981.70
2023-12-21T01:11:10.279Z,981.72
2023-12-21T01:12:10.232Z,981.66
2023-12-21T01:13:10.250Z,981.53
2023-12-21T01:14:10.208Z,981.58
2023-12-21T01:15:10.174Z,981.61
2023-12-21T01:16:10.250Z,981.54
2023-12-21T01:17:10.154Z,981.57
2023-12-21T01:18:10.263Z,981.58
2023-12-21T01:19:10.245Z,981.52
2023-12-21T01:20:10.347Z,981.58
2023-12-21T01:21:10.136Z,981.44
2023-12-21T01:22:10.165Z,981.55
2023-12-21T01:23:10.108Z,981.41
2023-12-21T01:24:10.118Z,981.40
2023-12-21T01:25:10.132Z,981.27
2023-12-21T01:26:10.063Z,981.27
2023-12-21T01:27:21.602Z,981.32
2023-12-21T01:28:11.139Z,981.31
2023-12-21T01:29:10.030Z,981.33
2023-12-21T01:30:10.105Z,981.32
2023-12-21T01:31:10.257Z,981.36
2023-12-21T01:32:10.064Z,981.30
2023-12-21T01:33:10.252Z,981.22
2023-12-21T01:34:10.234Z,981.29
2023-12-21T01:35:10.026Z,981.25
2023-12-21T01:36:09.963Z,981.26
2023-12-21T01:37:09.999Z,981.25
2023-12-21T01:38:09.987Z,981.20
2023-12-21T01:39:09.936Z,981.20
2023-12-21T01:40:10.063Z,981.15
2023-12-21T01:41:10.003Z,981.17
2023-12-21T01:42:09.925Z,981.13
2023-12-21T01:43:09.975Z,981.08
2023-12-21T01:44:09.937Z,981.15
2023-12-21T01:45:09.985Z,981.05
2023-12-21T01:46:09.978Z,981.06
2023-12-21T01:47:09.929Z,981.07
2023-12-21T01:48:10.005Z,981.14
2023-12-21T01:49:09.973Z,981.11
2023-12-21T01:50:09.973Z,981.10
2023-12-21T01:51:09.884Z,981.06
2023-12-21T01:52:09.886Z,981.12
2023-12-21T01:53:09.780Z,981.06
2023-12-21T01:54:09.779Z,981.15
2023-12-21T01:55:09.805Z,981.09
2023-12-21T01:56:10.004Z,981.17
2023-12-21T01:57:09.743Z,981.15
2023-12-21T01:58:09.810Z,981.11
2023-12-21T01:59:09.723Z,981.12
2023-12-21T02:00:09.729Z,981.12
2023-12-21T02:01:09.793Z,981.00
2023-12-21T02:02:09.894Z,981.00
2023-12-21T02:03:09.815Z,981.03
2023-12-21T02:04:09.767Z,980.91
2023-12-21T02:05:09.738Z,980.95
2023-12-21T02:06:09.732Z,980.88
2023-12-21T02:07:09.730Z,980.82
2023-12-21T02:08:09.628Z,980.77
2023-12-21T02:09:09.641Z,980.71
2023-12-21T02:10:09.720Z,980.66
2023-12-21T02:11:09.623Z,980.64
2023-12-21T02:12:09.600Z,980.61
2023-12-21T02:13:09.617Z,980.63
2023-12-21T02:14:09.574Z,980.60
2023-12-21T02:15:09.599Z,980.58
2023-12-21T02:16:09.569Z,980.58
2023-12-21T02:17:09.533Z,980.47
2023-12-21T02:18:09.575Z,980.53
2023-12-21T02:19:09.610Z,980.55
2023-12-21T02:20:09.570Z,980.48
2023-12-21T02:21:09.494Z,980.48
2023-12-21T02:22:09.519Z,980.51
2023-12-21T02:23:09.477Z,980.42
2023-12-21T02:24:09.475Z,980.49
2023-12-21T02:25:09.508Z,980.44
2023-12-21T02:26:09.442Z,980.43
2023-12-21T02:27:09.436Z,980.34
2023-12-21T02:28:09.495Z,980.44
2023-12-21T02:29:09.436Z,980.40
2023-12-21T02:30:09.450Z,980.37
2023-12-21T02:31:09.461Z,980.40
2023-12-21T02:32:09.393Z,980.38
2023-12-21T02:33:09.437Z,980.38
2023-12-21T02:34:09.495Z,980.36
2023-12-21T02:35:09.365Z,980.39
2023-12-21T02:36:09.376Z,980.37
2023-12-21T02:37:09.377Z,980.39
2023-12-21T02:38:09.332Z,980.47
2023-12-21T02:39:09.332Z,980.35
2023-12-21T02:40:09.335Z,980.28
2023-12-21T02:41:09.296Z,980.29
2023-12-21T02:42:09.281Z,980.30
2023-12-21T02:43:09.331Z,980.40
2023-12-21T02:44:09.293Z,980.29
2023-12-21T02:45:09.250Z,980.33
2023-12-21T02:46:09.255Z,980.21
2023-12-21T02:47:09.227Z,980.18
2023-12-21T02:48:09.301Z,980.06
2023-12-21T02:49:09.313Z,980.13
2023-12-21T02:50:09.392Z,980.11
2023-12-21T02:51:09.181Z,980.08
2023-12-21T02:52:09.272Z,979.95
2023-12-21T02:53:09.183Z,980.21
2023-12-21T02:54:09.173Z,980.30
2023-12-21T02:55:09.185Z,980.23
2023-12-21T02:56:09.135Z,980.17
2023-12-21T02:57:09.158Z,980.22
2023-12-21T02:58:09.167Z,980.16
2023-12-21T02:59:09.110Z,980.13
2023-12-21T03:00:09.102Z,980.09
2023-12-21T03:01:09.197Z,980.08
2023-12-21T03:02:09.152Z,980.11
2023-12-21T03:03:09.079Z,980.12
2023-12-21T03:04:09.113Z,979.98
2023-12-21T03:05:09.070Z,979.98
2023-12-21T03:06:09.032Z,979.96
2023-12-21T03:07:09.056Z,979.96
2023-12-21T03:08:09.038Z,979.93
2023-12-21T03:09:09.000Z,979.95
2023-12-21T03:10:08.995Z,979.92
2023-12-21T03:11:08.995Z,979.95
2023-12-21T03:12:09.020Z,979.89
2023-12-21T03:13:09.034Z,979.85
2023-12-21T03:14:08.948Z,979.93
2023-12-21T03:15:08.940Z,979.79
2023-12-21T03:16:09.032Z,979.78
2023-12-21T03:17:08.920Z,979.80
2023-12-21T03:18:08.956Z,979.75
2023-12-21T03:19:08.968Z,979.75
2023-12-21T03:20:09.097Z,979.75
2023-12-21T03:21:08.888Z,979.84
2023-12-21T03:22:08.978Z,979.81
2023-12-21T03:23:08.858Z,979.81
2023-12-21T03:24:08.875Z,979.76
2023-12-21T03:25:08.867Z,979.73
2023-12-21T03:26:08.852Z,979.81
2023-12-21T03:27:08.822Z,979.69
2023-12-21T03:28:08.898Z,979.75
2023-12-21T03:29:08.802Z,979.60
2023-12-21T03:30:08.822Z,979.68
2023-12-21T03:31:08.909Z,979.60
2023-12-21T03:32:08.769Z,979.62
2023-12-21T03:33:08.884Z,979.54
2023-12-21T03:34:08.842Z,979.51
2023-12-21T03:35:08.747Z,979.41
2023-12-21T03:36:08.728Z,979.38
2023-12-21T03:37:08.740Z,979.39
2023-12-21T03:38:08.711Z,979.38
2023-12-21T03:39:08.693Z,979.31
2023-12-21T03:40:08.798Z,979.36
2023-12-21T03:41:08.683Z,979.42
2023-12-21T03:42:08.673Z,979.38
2023-12-21T03:43:08.686Z,979.50
2023-12-21T03:44:08.656Z,979.44
2023-12-21T03:45:08.653Z,979.49
2023-12-21T03:46:08.668Z,979.56
2023-12-21T03:47:08.612Z,979.52
2023-12-21T03:48:08.726Z,979.47
2023-12-21T03:49:08.776Z,979.51
2023-12-21T03:50:08.586Z,979.44
2023-12-21T03:51:08.658Z,979.55
2023-12-21T03:52:08.589Z,979.42
2023-12-21T03:53:08.555Z,979.47
2023-12-21T03:54:08.568Z,979.46
2023-12-21T03:55:08.555Z,979.46
2023-12-21T03:56:08.572Z,979.37
2023-12-21T03:57:08.512Z,979.36
2023-12-21T03:58:08.550Z,979.19
2023-12-21T03:59:08.510Z,979.26
2023-12-21T04:00:08.563Z,979.26
2023-12-21T04:01:08.542Z,979.17
2023-12-21T04:02:08.453Z,979.12
2023-12-21T04:03:08.500Z,979.12
2023-12-21T04:04:08.552Z,979.08
2023-12-21T04:05:08.485Z,978.99
2023-12-21T04:06:08.412Z,978.87
2023-12-21T04:07:08.457Z,978.95
2023-12-21T04:08:08.427Z,978.96
2023-12-21T04:09:08.383Z,978.97
2023-12-21T04:10:08.398Z,978.94
2023-12-21T04:11:08.366Z,978.90
2023-12-21T04:12:08.404Z,978.88
2023-12-21T04:13:08.411Z,978.76
2023-12-21T04:14:08.328Z,978.70
2023-12-21T04:15:08.324Z,978.73
2023-12-21T04:16:08.357Z,978.57
2023-12-21T04:17:08.328Z,978.57
2023-12-21T04:18:08.370Z,978.61
2023-12-21T04:19:08.434Z,978.80
2023-12-21T04:20:08.274Z,978.68
2023-12-21T04:21:08.264Z,978.76
2023-12-21T04:22:08.308Z,978.65
2023-12-21T04:23:08.246Z,978.65
2023-12-21T04:24:08.237Z,978.64
2023-12-21T04:25:08.255Z,978.59
2023-12-21T04:26:08.225Z,978.54
2023-12-21T04:27:08.221Z,978.64
2023-12-21T04:28:08.243Z,978.63
2023-12-21T04:29:08.180Z,978.57
2023-12-21T04:30:08.209Z,978.57
2023-12-21T04:31:08.250Z,978.59
2023-12-21T04:32:08.149Z,978.54
2023-12-21T04:33:08.177Z,978.60
2023-12-21T04:34:08.297Z,978.43
2023-12-21T04:35:08.124Z,978.50
2023-12-21T04:36:08.158Z,978.29
2023-12-21T04:37:08.126Z,978.30
2023-12-21T04:38:08.089Z,978.33
2023-12-21T04:39:08.084Z,978.28
2023-12-21T04:40:08.133Z,978.25
2023-12-21T04:41:08.077Z,978.18
2023-12-21T04:42:10.770Z,978.06
2023-12-21T04:43:08.129Z,978.03
2023-12-21T04:44:08.048Z,977.98
2023-12-21T04:45:08.034Z,978.09
2023-12-21T04:46:08.032Z,978.02
2023-12-21T04:47:07.994Z,978.01
2023-12-21T04:48:08.058Z,978.05
2023-12-21T04:49:16.163Z,978.03
2023-12-21T04:50:08.035Z,977.94
2023-12-21T04:51:07.965Z,977.89
2023-12-21T04:52:07.956Z,977.85
2023-12-21T04:53:07.936Z,977.86
2023-12-21T04:54:07.920Z,977.84
2023-12-21T04:55:07.987Z,977.87
2023-12-21T04:56:07.916Z,977.89
2023-12-21T04:57:07.899Z,977.84
2023-12-21T04:58:07.911Z,977.97
2023-12-21T04:59:07.869Z,977.97
2023-12-21T05:00:07.891Z,977.94
2023-12-21T05:01:07.937Z,977.91
2023-12-21T05:02:07.886Z,977.87
2023-12-21T05:03:07.861Z,977.90
2023-12-21T05:04:07.863Z,977.86
2023-12-21T05:05:07.829Z,977.88
2023-12-21T05:06:07.882Z,977.79
2023-12-21T05:07:07.887Z,977.87
2023-12-21T05:08:07.797Z,977.77
2023-12-21T05:09:07.788Z,977.81
2023-12-21T05:10:07.848Z,977.93
2023-12-21T05:11:07.745Z,977.79
2023-12-21T05:12:07.746Z,977.83
2023-12-21T05:13:07.779Z,977.78
2023-12-21T05:14:07.741Z,977.76
2023-12-21T05:15:07.709Z,977.71
2023-12-21T05:16:07.770Z,977.77
2023-12-21T05:17:09.273Z,977.66
2023-12-21T05:18:07.766Z,977.65
2023-12-21T05:19:07.757Z,977.62
2023-12-21T05:20:07.653Z,977.72
2023-12-21T05:21:07.651Z,977.61
2023-12-21T05:22:07.660Z,977.67
2023-12-21T05:23:07.671Z,977.65
2023-12-21T05:24:07.642Z,977.55
2023-12-21T05:25:07.691Z,977.49
2023-12-21T05:26:07.602Z,977.42
2023-12-21T05:27:07.588Z,977.50
2023-12-21T05:28:07.642Z,977.56
2023-12-21T05:29:07.694Z,977.56
2023-12-21T05:30:07.654Z,977.49
2023-12-21T05:31:07.680Z,977.42
2023-12-21T05:32:07.563Z,977.44
2023-12-21T05:33:07.613Z,977.39
2023-12-21T05:34:07.622Z,977.45
2023-12-21T05:35:07.536Z,977.34
2023-12-21T05:36:07.490Z,977.33
2023-12-21T05:37:07.517Z,977.40
2023-12-21T05:38:07.493Z,977.36
2023-12-21T05:39:17.482Z,977.35
2023-12-21T05:40:08.496Z,977.36
2023-12-21T05:41:07.453Z,977.37
2023-12-21T05:42:07.447Z,977.34
2023-12-21T05:43:07.490Z,977.34
2023-12-21T05:44:07.442Z,977.27
2023-12-21T05:45:07.433Z,977.33
2023-12-21T05:46:07.437Z,977.16
2023-12-21T05:47:07.405Z,977.06
2023-12-21T05:48:07.499Z,977.02
2023-12-21T05:49:07.533Z,977.04
2023-12-21T05:50:07.377Z,976.96
2023-12-21T05:51:07.369Z,977.01
2023-12-21T05:52:07.408Z,976.85
2023-12-21T05:53:07.322Z,976.96
2023-12-21T05:54:07.310Z,976.89
2023-12-21T05:55:07.344Z,976.90
2023-12-21T05:56:07.282Z,976.81
2023-12-21T05:57:07.307Z,976.83
2023-12-21T05:58:07.273Z,976.95
2023-12-21T05:59:07.262Z,976.80
2023-12-21T06:00:07.267Z,976.84
2023-12-21T06:01:07.299Z,976.80
2023-12-21T06:02:07.262Z,976.77
2023-12-21T06:03:07.235Z,976.75
2023-12-21T06:04:07.321Z,976.81
2023-12-21T06:05:07.262Z,976.76
2023-12-21T06:06:07.277Z,976.77
2023-12-21T06:07:07.277Z,976.78
2023-12-21T06:08:07.218Z,976.86
2023-12-21T06:09:07.154Z,976.87
2023-12-21T06:10:07.192Z,976.70
2023-12-21T06:11:07.152Z,976.65
2023-12-21T06:12:07.141Z,976.58
2023-12-21T06:13:07.133Z,976.66
2023-12-21T06:14:07.100Z,976.63
2023-12-21T06:15:07.097Z,976.52
2023-12-21T06:16:07.134Z,976.52
2023-12-21T06:17:07.074Z,976.50
2023-12-21T06:18:08.642Z,976.56
2023-12-21T06:19:07.106Z,976.40
2023-12-21T06:20:07.162Z,976.37
2023-12-21T06:21:07.065Z,976.48
2023-12-21T06:22:07.115Z,976.43
2023-12-21T06:23:07.008Z,976.44
2023-12-21T06:24:07.000Z,976.41
2023-12-21T06:25:07.025Z,976.46
2023-12-21T06:26:07.014Z,976.35
2023-12-21T06:27:06.967Z,976.41
2023-12-21T06:28:06.973Z,976.39
2023-12-21T06:29:06.967Z,976.46
2023-12-21T06:30:07.034Z,976.41
2023-12-21T06:31:07.083Z,976.27
2023-12-21T06:32:07.006Z,976.50
2023-12-21T06:33:07.013Z,976.36
2023-12-21T06:34:07.050Z,976.30
2023-12-21T06:35:07.040Z,976.48
2023-12-21T06:36:06.925Z,976.38
2023-12-21T06:37:06.896Z,976.31
2023-12-21T06:38:06.858Z,976.42
2023-12-21T06:39:06.872Z,976.35
2023-12-21T06:40:06.894Z,976.42
2023-12-21T06:41:06.844Z,976.38
2023-12-21T06:42:06.822Z,976.43
2023-12-21T06:43:06.849Z,976.38
2023-12-21T06:44:06.794Z,976.36
2023-12-21T06:45:06.827Z,976.42
2023-12-21T06:46:06.826Z,976.42
2023-12-21T06:47:06.773Z,976.43
2023-12-21T06:48:06.826Z,976.45
2023-12-21T06:49:06.833Z,976.43
2023-12-21T06:50:06.864Z,976.38
2023-12-21T06:51:06.759Z,976.37
2023-12-21T06:52:06.786Z,976.39
2023-12-21T06:53:06.716Z,976.34
2023-12-21T06:54:06.699Z,976.35
2023-12-21T06:55:06.814Z,976.41
2023-12-21T06:56:18.361Z,976.50
2023-12-21T06:57:07.675Z,976.40
2023-12-21T06:58:06.741Z,976.44
2023-12-21T06:59:06.658Z,976.45
2023-12-21T07:00:06.658Z,976.44
2023-12-21T07:01:06.742Z,976.35
2023-12-21T07:02:06.658Z,976.25
2023-12-21T07:03:06.652Z,976.35
2023-12-21T07:04:06.656Z,976.34
2023-12-21T07:05:06.617Z,976.32
2023-12-21T07:06:06.565Z,976.28
2023-12-21T07:07:06.666Z,976.27
2023-12-21T07:08:06.604Z,976.27
2023-12-21T07:09:06.580Z,976.22
2023-12-21T07:10:06.606Z,976.22
2023-12-21T07:11:06.554Z,976.20
2023-12-21T07:12:06.556Z,976.22
2023-12-21T07:13:06.575Z,976.19
2023-12-21T07:14:06.505Z,976.24
2023-12-21T07:15:06.492Z,976.21
2023-12-21T07:16:06.493Z,976.25
2023-12-21T07:17:06.461Z,976.21
2023-12-21T07:18:06.503Z,976.21
2023-12-21T07:19:06.541Z,976.05
2023-12-21T07:20:06.442Z,976.02
2023-12-21T07:21:06.430Z,976.07
2023-12-21T07:22:06.488Z,976.03
2023-12-21T07:23:06.409Z,975.94
2023-12-21T07:24:06.458Z,975.92
2023-12-21T07:25:06.420Z,975.84
2023-12-21T07:26:06.390Z,975.84
2023-12-21T07:27:06.364Z,975.78
2023-12-21T07:28:06.363Z,975.83
2023-12-21T07:29:06.364Z,975.84
2023-12-21T07:30:06.344Z,975.86
2023-12-21T07:31:06.399Z,975.83
2023-12-21T07:32:06.325Z,975.78
2023-12-21T07:33:06.804Z,975.85
2023-12-21T07:34:06.655Z,975.74
2023-12-21T07:35:06.283Z,975.91
2023-12-21T07:36:06.260Z,975.84
2023-12-21T07:37:06.337Z,975.77
2023-12-21T07:38:06.275Z,975.85
2023-12-21T07:39:06.235Z,975.85
2023-12-21T07:40:06.294Z,975.81
2023-12-21T07:41:06.226Z,975.77
2023-12-21T07:42:06.203Z,975.61
2023-12-21T07:43:06.237Z,975.59
2023-12-21T07:44:06.192Z,975.62
2023-12-21T07:45:06.174Z,975.66
2023-12-21T07:46:09.124Z,975.65
2023-12-21T07:47:06.164Z,975.66
2023-12-21T07:48:06.207Z,975.65
2023-12-21T07:49:06.250Z,975.68
2023-12-21T07:50:06.151Z,975.61
2023-12-21T07:51:06.111Z,975.76
2023-12-21T07:52:06.152Z,975.61
2023-12-21T07:53:06.569Z,975.65
2023-12-21T07:54:06.104Z,975.56
2023-12-21T07:55:06.439Z,975.61
2023-12-21T07:56:06.213Z,975.52
2023-12-21T07:57:06.069Z,975.59
2023-12-21T07:58:06.106Z,975.56
2023-12-21T07:59:06.035Z,975.67
2023-12-21T08:00:06.026Z,975.63
2023-12-21T08:01:06.073Z,975.60
2023-12-21T08:02:06.020Z,975.68
2023-12-21T08:03:05.987Z,975.66
2023-12-21T08:04:06.044Z,975.60
2023-12-21T08:05:06.001Z,975.67
2023-12-21T08:06:06.011Z,975.64
2023-12-21T08:07:06.026Z,975.65
2023-12-21T08:08:05.957Z,975.60
2023-12-21T08:09:05.930Z,975.62
2023-12-21T08:10:05.957Z,975.53
2023-12-21T08:11:05.922Z,975.67
2023-12-21T08:12:05.939Z,975.48
2023-12-21T08:13:05.911Z,975.49
2023-12-21T08:14:05.881Z,975.41
2023-12-21T08:15:05.872Z,975.34
2023-12-21T08:16:05.899Z,975.37
2023-12-21T08:17:05.882Z,975.39
2023-12-21T08:18:06.072Z,975.44
2023-12-21T08:19:05.916Z,975.40
2023-12-21T08:20:05.948Z,975.37
2023-12-21T08:21:05.842Z,975.33
2023-12-21T08:22:05.983Z,975.17
2023-12-21T08:23:05.796Z,975.16
2023-12-21T08:24:05.811Z,975.11
2023-12-21T08:25:05.825Z,975.10
2023-12-21T08:26:05.793Z,975.17
2023-12-21T08:27:05.752Z,975.00
2023-12-21T08:28:05.905Z,975.02
2023-12-21T08:29:05.784Z,975.08
2023-12-21T08:30:05.784Z,975.00
2023-12-21T08:31:05.892Z,974.97
2023-12-21T08:32:05.758Z,974.94
2023-12-21T08:33:05.777Z,974.96
2023-12-21T08:34:05.904Z,974.93
2023-12-21T08:35:05.744Z,975.11
2023-12-21T08:36:05.674Z,974.84
2023-12-21T08:37:05.712Z,974.84
2023-12-21T08:38:05.653Z,974.76
2023-12-21T08:39:05.634Z,974.58
2023-12-21T08:40:05.688Z,974.53
2023-12-21T08:41:05.611Z,974.62
2023-12-21T08:42:05.600Z,974.49
2023-12-21T08:43:05.635Z,974.36
2023-12-21T08:44:05.598Z,974.34
2023-12-21T08:45:05.600Z,974.36
2023-12-21T08:46:05.602Z,974.44
2023-12-21T08:47:05.554Z,974.28
2023-12-21T08:48:05.653Z,974.42
2023-12-21T08:49:06.781Z,974.26
2023-12-21T08:50:05.719Z,974.23
2023-12-21T08:51:05.565Z,974.20
2023-12-21T08:52:05.554Z,974.17
2023-12-21T08:53:05.527Z,974.17
2023-12-21T08:54:05.536Z,974.20
2023-12-21T08:55:05.524Z,974.31
2023-12-21T08:56:06.079Z,974.31
2023-12-21T08:57:06.551Z,974.18
2023-12-21T08:58:05.492Z,974.04
2023-12-21T08:59:05.469Z,974.13
2023-12-21T09:00:05.514Z,974.31
2023-12-21T09:01:05.592Z,974.22
2023-12-21T09:02:06.589Z,974.28
2023-12-21T09:03:05.478Z,974.26
2023-12-21T09:04:05.487Z,974.25
2023-12-21T09:05:05.427Z,974.13
2023-12-21T09:06:05.491Z,974.24
2023-12-21T09:07:05.514Z,974.10
2023-12-21T09:08:05.414Z,974.02
2023-12-21T09:09:07.138Z,974.03
2023-12-21T09:10:06.301Z,974.09
2023-12-21T09:11:05.488Z,973.91
2023-12-21T09:12:05.369Z,973.97
2023-12-21T09:13:06.169Z,973.95
2023-12-21T09:14:06.214Z,973.83
2023-12-21T09:15:06.559Z,973.80
2023-12-21T09:16:05.437Z,973.78
2023-12-21T09:17:05.478Z,973.74
2023-12-21T09:18:06.757Z,973.63
2023-12-21T09:19:05.417Z,973.80
2023-12-21T09:20:05.329Z,973.68
2023-12-21T09:21:05.211Z,973.68
2023-12-21T09:22:05.319Z,973.47
2023-12-21T09:23:05.252Z,973.71
2023-12-21T09:24:05.203Z,973.70
2023-12-21T09:25:05.253Z,973.47
2023-12-21T09:26:05.179Z,973.50
2023-12-21T09:28:29.942Z,973.44
2023-12-21T09:29:29.862Z,973.43
2023-12-21T09:30:29.932Z,973.42
2023-12-21T09:31:29.938Z,973.39
2023-12-21T09:32:29.873Z,973.40
2023-12-21T09:33:29.913Z,973.51
2023-12-21T09:34:29.900Z,973.44
2023-12-21T09:35:30.028Z,973.47
2023-12-21T09:36:29.783Z,973.39
2023-12-21T09:37:29.812Z,973.53
2023-12-21T09:38:29.782Z,973.35
2023-12-21T09:39:29.809Z,973.39
2023-12-21T09:40:29.794Z,973.36
2023-12-21T09:41:29.745Z,973.41
2023-12-21T09:42:29.744Z,973.32
2023-12-21T09:43:29.905Z,973.26
2023-12-21T09:44:30.166Z,973.34
2023-12-21T09:45:29.703Z,973.33
2023-12-21T09:46:29.763Z,973.24
2023-12-21T09:47:29.767Z,973.16
2023-12-21T09:48:29.789Z,973.23
2023-12-21T09:49:29.717Z,973.23
2023-12-21T09:50:29.668Z,973.32
2023-12-21T09:51:29.650Z,973.24
2023-12-21T09:52:29.692Z,973.28
2023-12-21T09:53:29.698Z,973.20
2023-12-21T09:54:29.604Z,973.25
2023-12-21T09:55:29.658Z,973.25
2023-12-21T09:56:32.148Z,973.20
2023-12-21T09:57:29.577Z,973.20
2023-12-21T09:58:29.607Z,973.26
2023-12-21T09:59:29.552Z,973.25
2023-12-21T10:00:29.607Z,973.30
2023-12-21T10:01:29.572Z,973.23
2023-12-21T10:02:29.545Z,973.27
2023-12-21T10:03:29.701Z,973.26
2023-12-21T10:04:29.648Z,973.34
2023-12-21T10:05:29.514Z,973.30
2023-12-21T10:06:29.573Z,973.34
2023-12-21T10:07:29.486Z,973.45
2023-12-21T10:08:29.455Z,973.40
2023-12-21T10:09:29.455Z,973.33
2023-12-21T10:10:29.470Z,973.21
2023-12-21T10:11:29.498Z,973.27
2023-12-21T10:12:29.425Z,973.17
2023-12-21T10:13:29.411Z,973.16
2023-12-21T10:14:30.725Z,973.23
2023-12-21T10:15:29.387Z,973.07
2023-12-21T10:16:29.516Z,973.14
2023-12-21T10:17:29.407Z,973.02
2023-12-21T10:18:29.494Z,972.99
2023-12-21T10:19:29.500Z,972.95
2023-12-21T10:20:29.344Z,972.89
2023-12-21T10:21:29.357Z,972.88
2023-12-21T10:22:29.375Z,972.82
2023-12-21T10:23:30.346Z,972.92
2023-12-21T10:24:29.411Z,972.85
2023-12-21T10:25:29.344Z,972.74
2023-12-21T10:26:29.324Z,972.72
2023-12-21T10:27:29.290Z,972.74
2023-12-21T10:28:29.387Z,972.70
2023-12-21T10:29:29.324Z,972.68
2023-12-21T10:30:29.287Z,972.64
2023-12-21T10:31:29.288Z,972.64
2023-12-21T10:32:29.259Z,972.77
2023-12-21T10:33:29.297Z,972.62
2023-12-21T10:34:29.327Z,972.64
2023-12-21T10:35:29.386Z,972.42
2023-12-21T10:36:29.220Z,972.64
2023-12-21T10:37:29.288Z,972.44
2023-12-21T10:38:29.206Z,972.48
2023-12-21T10:39:29.156Z,972.39
2023-12-21T10:40:29.181Z,972.42
2023-12-21T10:41:29.822Z,972.38
2023-12-21T10:42:29.239Z,972.46
2023-12-21T10:43:29.567Z,972.49
2023-12-21T10:44:29.117Z,972.41
2023-12-21T10:45:34.289Z,972.42
2023-12-21T10:46:30.317Z,972.42
2023-12-21T10:47:29.159Z,972.32
2023-12-21T10:48:29.271Z,972.22
2023-12-21T10:49:29.298Z,972.29
2023-12-21T10:50:29.153Z,972.29
2023-12-21T10:51:29.044Z,972.24
2023-12-21T10:52:29.126Z,972.16
2023-12-21T10:53:29.030Z,972.18
2023-12-21T10:54:29.011Z,972.22
2023-12-21T10:55:29.137Z,972.30
2023-12-21T10:56:29.948Z,972.26
2023-12-21T10:57:29.082Z,972.10
2023-12-21T10:58:29.088Z,972.03
2023-12-21T10:59:28.971Z,972.03
2023-12-21T11:00:29.012Z,972.00
2023-12-21T11:01:28.973Z,972.11
2023-12-21T11:02:28.957Z,972.09
2023-12-21T11:03:28.926Z,971.94
2023-12-21T11:04:28.990Z,971.88
2023-12-21T11:05:29.298Z,971.86
2023-12-21T11:06:29.325Z,971.99
2023-12-21T11:07:28.916Z,971.84
2023-12-21T11:08:28.875Z,971.79
2023-12-21T11:09:28.848Z,971.64
2023-12-21T11:10:28.897Z,971.73
2023-12-21T11:11:28.894Z,971.65
2023-12-21T11:12:28.860Z,971.53
2023-12-21T11:13:28.880Z,971.52
2023-12-21T11:14:28.850Z,971.47
2023-12-21T11:15:28.828Z,971.50
2023-12-21T11:16:28.841Z,971.61
2023-12-21T11:17:28.796Z,971.66
2023-12-21T11:18:28.810Z,971.56
2023-12-21T11:19:28.876Z,971.64
2023-12-21T11:20:39.032Z,971.47
2023-12-21T11:21:29.936Z,971.49
2023-12-21T11:22:28.781Z,971.50
2023-12-21T11:23:28.970Z,971.64
2023-12-21T11:24:28.788Z,971.36
2023-12-21T11:25:28.768Z,971.41
2023-12-21T11:26:28.714Z,971.37
2023-12-21T11:27:28.673Z,971.41
2023-12-21T11:28:28.721Z,971.33
2023-12-21T11:29:29.112Z,971.47
2023-12-21T11:30:29.320Z,971.62
2023-12-21T11:31:28.732Z,971.46
2023-12-21T11:32:28.739Z,971.45
2023-12-21T11:33:28.722Z,971.41
2023-12-21T11:34:28.671Z,971.38
2023-12-21T11:35:28.610Z,971.34
2023-12-21T11:36:28.596Z,971.36
2023-12-21T11:37:28.640Z,971.38
2023-12-21T11:38:28.567Z,971.37
2023-12-21T11:39:28.572Z,971.31
2023-12-21T11:40:28.618Z,971.22
2023-12-21T11:41:28.534Z,971.22
2023-12-21T11:42:28.579Z,971.23
2023-12-21T11:43:28.562Z,971.12
2023-12-21T11:44:28.529Z,971.21
2023-12-21T11:45:28.495Z,971.25
2023-12-21T11:46:28.548Z,971.28
2023-12-21T11:47:28.495Z,971.34
2023-12-21T11:48:28.530Z,971.25
2023-12-21T11:49:28.579Z,971.16
2023-12-21T11:50:28.483Z,971.21
2023-12-21T11:51:28.430Z,971.27
2023-12-21T11:52:28.498Z,971.27
2023-12-21T11:53:36.333Z,971.30
2023-12-21T11:54:29.426Z,971.23
2023-12-21T11:55:28.465Z,971.21
2023-12-21T11:56:28.460Z,971.22
2023-12-21T11:57:28.367Z,971.21
2023-12-21T11:58:28.563Z,971.23
2023-12-21T11:59:28.653Z,971.15
2023-12-21T12:00:28.346Z,971.15
2023-12-21T12:01:28.428Z,971.06
2023-12-21T12:02:28.380Z,971.04
2023-12-21T12:03:28.386Z,971.11
2023-12-21T12:04:28.478Z,971.15
2023-12-21T12:05:28.405Z,971.11
2023-12-21T12:06:28.269Z,970.82
2023-12-21T12:07:28.371Z,970.89
2023-12-21T12:08:28.615Z,970.96
2023-12-21T12:09:28.313Z,971.00
2023-12-21T12:10:28.300Z,970.91
2023-12-21T12:11:28.252Z,970.89
2023-12-21T12:12:28.214Z,970.82
2023-12-21T12:13:28.334Z,970.85
2023-12-21T12:14:28.192Z,970.72
2023-12-21T12:15:28.214Z,970.89
2023-12-21T12:16:28.271Z,970.73
2023-12-21T12:17:28.470Z,970.81
2023-12-21T12:18:28.316Z,970.84
2023-12-21T12:19:28.734Z,970.75
2023-12-21T12:20:28.134Z,970.70
2023-12-21T12:21:29.385Z,970.74
2023-12-21T12:22:28.170Z,970.71
2023-12-21T12:23:28.114Z,970.79
2023-12-21T12:24:28.097Z,970.64
2023-12-21T12:25:28.111Z,970.58
2023-12-21T12:26:28.087Z,970.54
2023-12-21T12:27:28.094Z,970.53
2023-12-21T12:28:28.117Z,970.64
2023-12-21T12:29:28.103Z,970.56